createdAt,value
2022-12-11T00:01:18.477Z,-0.05
2022-12-11T00:03:48.090Z,-0.17
2022-12-11T00:06:18.903Z,-0.27
2022-12-11T00:08:47.691Z,-0.27
2022-12-11T00:11:17.095Z,-0.13
2022-12-11T00:13:46.771Z,-0.11
2022-12-11T00:16:15.656Z,-0.21
2022-12-11T00:18:44.448Z,-0.20
2022-12-11T00:21:14.466Z,-0.13
2022-12-11T00:23:43.341Z,-0.19
2022-12-11T00:26:15.362Z,-0.09
2022-12-11T00:28:45.237Z,-0.10
2022-12-11T00:31:18.990Z,-0.12
2022-12-11T00:33:51.266Z,-0.11
2022-12-11T00:36:25.261Z,-0.11
2022-12-11T00:38:54.299Z,-0.24
2022-12-11T00:41:22.940Z,-0.31
2022-12-11T00:43:51.579Z,-0.20
2022-12-11T00:46:19.997Z,-0.11
2022-12-11T00:48:49.824Z,-0.17
2022-12-11T00:51:18.260Z,-0.30
2022-12-11T00:53:46.987Z,-0.42
2022-12-11T00:56:18.813Z,-0.31
2022-12-11T00:58:48.585Z,-0.28
2022-12-11T01:01:21.632Z,-0.24
2022-12-11T01:03:51.083Z,-0.41
2022-12-11T01:06:23.530Z,-0.40
2022-12-11T01:09:12.310Z,-0.38
2022-12-11T01:11:42.504Z,-0.32
2022-12-11T01:14:11.631Z,-0.36
2022-12-11T01:16:40.258Z,-0.30
2022-12-11T01:19:08.988Z,-0.30
2022-12-11T01:21:37.279Z,-0.39
2022-12-11T01:24:05.881Z,-0.37
2022-12-11T01:26:34.457Z,-0.35
2022-12-11T01:29:02.830Z,-0.33
2022-12-11T01:31:31.225Z,-0.17
2022-12-11T01:33:59.735Z,-0.19
2022-12-11T01:36:28.038Z,-0.20
2022-12-11T01:38:56.433Z,-0.17
2022-12-11T01:41:25.214Z,-0.27
2022-12-11T01:44:29.292Z,-0.28
2022-12-11T01:46:58.369Z,-0.35
2022-12-11T01:49:28.816Z,-0.45
2022-12-11T01:52:11.902Z,-0.50
2022-12-11T01:54:41.446Z,-0.47
2022-12-11T01:57:11.687Z,-0.52
2022-12-11T01:59:44.647Z,-0.58
2022-12-11T02:02:31.684Z,-0.52
2022-12-11T02:05:02.497Z,-0.57
2022-12-11T02:07:39.122Z,-0.46
2022-12-11T02:10:10.168Z,-0.47
2022-12-11T02:12:55.808Z,-0.45
2022-12-11T02:16:07.881Z,-0.50
2022-12-11T02:18:42.622Z,-0.49
2022-12-11T02:21:20.636Z,-0.50
2022-12-11T02:24:07.291Z,-0.49
2022-12-11T02:26:59.873Z,-0.60
2022-12-11T02:29:52.522Z,-0.59
2022-12-11T02:32:49.105Z,-0.62
2022-12-11T02:35:37.914Z,-0.58
2022-12-11T02:38:12.923Z,-0.60
2022-12-11T02:40:43.672Z,-0.58
2022-12-11T02:43:16.348Z,-0.56
2022-12-11T02:45:46.712Z,-0.55
2022-12-11T02:48:17.686Z,-0.53
2022-12-11T02:50:51.028Z,-0.50
2022-12-11T02:53:24.719Z,-0.54
2022-12-11T02:56:00.609Z,-0.66
2022-12-11T02:58:32.721Z,-0.55
2022-12-11T03:01:01.283Z,-0.62
2022-12-11T03:03:30.760Z,-0.52
2022-12-11T03:05:59.157Z,-0.53
2022-12-11T03:08:27.561Z,-0.62
2022-12-11T03:10:55.954Z,-0.58
2022-12-11T03:13:24.323Z,-0.60
2022-12-11T03:16:12.356Z,-0.58
2022-12-11T03:18:52.865Z,-0.65
2022-12-11T03:21:32.502Z,-0.62
2022-12-11T03:24:24.176Z,-0.54
2022-12-11T03:27:06.818Z,-0.55
2022-12-11T03:29:47.215Z,-0.53
2022-12-11T03:32:23.014Z,-0.68
2022-12-11T03:35:03.213Z,-0.71
2022-12-11T03:37:37.773Z,-0.68
2022-12-11T03:40:12.395Z,-0.62
2022-12-11T03:42:44.542Z,-0.78
2022-12-11T03:45:14.551Z,-0.90
2022-12-11T03:47:44.457Z,-0.83
2022-12-11T03:50:15.247Z,-0.71
2022-12-11T03:52:46.812Z,-0.73
2022-12-11T03:55:18.787Z,-0.66
2022-12-11T03:57:47.248Z,-0.65
2022-12-11T04:00:20.100Z,-0.56
2022-12-11T04:03:13.287Z,-0.52
2022-12-11T04:05:45.220Z,-0.48
2022-12-11T04:08:14.478Z,-0.68
2022-12-11T04:10:43.392Z,-0.72
2022-12-11T04:13:12.008Z,-0.74
2022-12-11T04:15:40.606Z,-0.78
2022-12-11T04:18:28.774Z,-0.76
2022-12-11T04:21:15.958Z,-0.78
2022-12-11T04:24:02.803Z,-0.87
2022-12-11T04:26:31.109Z,-0.88
2022-12-11T04:28:59.410Z,-0.92
2022-12-11T04:31:30.057Z,-0.88
2022-12-11T04:33:58.587Z,-0.92
2022-12-11T04:36:26.958Z,-0.87
2022-12-11T04:38:55.317Z,-0.73
2022-12-11T04:41:23.631Z,-0.70
2022-12-11T04:43:52.014Z,-0.84
2022-12-11T04:46:23.278Z,-1.01
2022-12-11T04:48:57.278Z,-0.88
2022-12-11T04:51:27.897Z,-0.84
2022-12-11T04:53:56.233Z,-0.79
2022-12-11T04:56:24.546Z,-0.93
2022-12-11T04:58:52.837Z,-0.99
2022-12-11T05:01:22.711Z,-0.92
2022-12-11T05:03:51.163Z,-0.84
2022-12-11T05:06:19.651Z,-0.84
2022-12-11T05:08:48.011Z,-0.81
2022-12-11T05:11:17.484Z,-0.85
2022-12-11T05:13:45.942Z,-0.89
2022-12-11T05:16:16.954Z,-0.82
2022-12-11T05:18:45.540Z,-0.69
2022-12-11T05:21:15.914Z,-0.66
2022-12-11T05:23:44.454Z,-0.79
2022-12-11T05:26:15.830Z,-0.78
2022-12-11T05:28:45.039Z,-0.68
2022-12-11T05:31:17.259Z,-0.67
2022-12-11T05:33:47.025Z,-0.74
2022-12-11T05:36:19.738Z,-0.80
2022-12-11T05:38:48.554Z,-0.83
2022-12-11T05:41:19.631Z,-0.77
2022-12-11T05:43:48.437Z,-0.88
2022-12-11T05:46:22.963Z,-0.81
2022-12-11T05:48:55.699Z,-0.74
2022-12-11T05:51:24.281Z,-0.81
2022-12-11T05:53:53.875Z,-0.79
2022-12-11T05:56:26.355Z,-0.81
2022-12-11T05:58:55.778Z,-0.77
2022-12-11T06:01:33.745Z,-0.72
2022-12-11T06:04:02.898Z,-0.62
2022-12-11T06:06:31.756Z,-0.65
2022-12-11T06:09:01.204Z,-0.66
2022-12-11T06:11:31.594Z,-0.58
2022-12-11T06:14:02.414Z,-0.65
2022-12-11T06:16:31.717Z,-0.77
2022-12-11T06:19:00.150Z,-0.73
2022-12-11T06:21:31.333Z,-0.77
2022-12-11T06:24:02.679Z,-0.83
2022-12-11T06:26:32.191Z,-0.78
2022-12-11T06:29:00.808Z,-0.77
2022-12-11T06:31:29.154Z,-0.83
2022-12-11T06:33:58.087Z,-0.95
2022-12-11T06:36:26.484Z,-0.95
2022-12-11T06:38:55.487Z,-0.80
2022-12-11T06:41:23.795Z,-0.84
2022-12-11T06:43:51.745Z,-0.88
2022-12-11T06:46:20.539Z,-0.97
2022-12-11T06:48:49.549Z,-1.06
2022-12-11T06:51:21.694Z,-1.03
2022-12-11T06:53:57.171Z,-1.03
2022-12-11T06:56:25.403Z,-0.91
2022-12-11T06:58:53.316Z,-0.97
2022-12-11T07:01:28.298Z,-1.02
2022-12-11T07:03:59.024Z,-0.95
2022-12-11T07:06:29.111Z,-0.87
2022-12-11T07:08:57.266Z,-0.94
2022-12-11T07:11:25.231Z,-0.87
2022-12-11T07:13:53.194Z,-1.07
2022-12-11T07:16:21.459Z,-1.04
2022-12-11T07:18:51.281Z,-1.14
2022-12-11T07:21:21.130Z,-1.14
2022-12-11T07:23:50.379Z,-1.20
2022-12-11T07:26:22.125Z,-1.21
2022-12-11T07:28:50.325Z,-1.07
2022-12-11T07:31:22.200Z,-1.05
2022-12-11T07:34:08.498Z,-1.02
2022-12-11T07:36:36.507Z,-1.10
2022-12-11T07:39:04.504Z,-1.07
2022-12-11T07:41:32.385Z,-1.13
2022-12-11T07:44:01.411Z,-1.19
2022-12-11T07:46:32.405Z,-1.26
2022-12-11T07:49:01.348Z,-1.36
2022-12-11T07:51:35.748Z,-1.40
2022-12-11T07:54:16.822Z,-1.30
2022-12-11T07:56:52.812Z,-1.28
2022-12-11T07:59:21.686Z,-1.42
2022-12-11T08:01:49.669Z,-1.52
2022-12-11T08:04:17.573Z,-1.58
2022-12-11T08:06:45.693Z,-1.50
2022-12-11T08:09:20.895Z,-1.45
2022-12-11T08:11:51.192Z,-1.58
2022-12-11T08:14:19.922Z,-1.41
2022-12-11T08:16:49.004Z,-1.39
2022-12-11T08:19:18.016Z,-1.37
2022-12-11T08:21:46.856Z,-1.50
2022-12-11T08:24:20.070Z,-1.57
2022-12-11T08:26:48.637Z,-1.55
2022-12-11T08:29:16.524Z,-1.52
2022-12-11T08:31:44.779Z,-1.55
2022-12-11T08:34:14.214Z,-1.66
2022-12-11T08:36:42.250Z,-1.60
2022-12-11T08:39:10.098Z,-1.43
2022-12-11T08:41:38.841Z,-1.52
2022-12-11T08:44:16.859Z,-1.44
2022-12-11T08:46:45.807Z,-1.44
2022-12-11T08:49:13.748Z,-1.59
2022-12-11T08:51:41.692Z,-1.57
2022-12-11T08:54:10.966Z,-1.41
2022-12-11T08:56:39.006Z,-1.28
2022-12-11T08:59:07.230Z,-1.23
2022-12-11T09:01:35.255Z,-1.19
2022-12-11T09:04:03.487Z,-1.13
2022-12-11T09:06:33.346Z,-1.34
2022-12-11T09:09:02.629Z,-1.41
2022-12-11T09:11:35.538Z,-1.20
2022-12-11T09:14:07.575Z,-1.15
2022-12-11T09:16:40.490Z,-1.33
2022-12-11T09:19:14.121Z,-1.44
2022-12-11T09:21:43.822Z,-1.41
2022-12-11T09:24:13.449Z,-1.45
2022-12-11T09:26:42.129Z,-1.48
2022-12-11T09:29:12.000Z,-1.45
2022-12-11T09:31:40.413Z,-1.50
2022-12-11T09:34:12.426Z,-1.35
2022-12-11T09:36:44.057Z,-1.43
2022-12-11T09:39:14.405Z,-1.37
2022-12-11T09:42:30.612Z,-1.24
2022-12-11T09:45:02.974Z,-0.90
2022-12-11T09:47:49.647Z,-0.59
2022-12-11T09:50:31.270Z,-0.68
2022-12-11T09:53:30.985Z,-1.10
2022-12-11T09:56:36.558Z,-1.11
2022-12-11T09:59:28.943Z,-1.01
2022-12-11T10:02:30.406Z,-0.92
2022-12-11T10:05:26.529Z,-0.94
2022-12-11T10:08:24.231Z,-1.18
2022-12-11T10:11:30.124Z,-1.28
2022-12-11T10:14:26.246Z,-1.14
2022-12-11T10:17:25.688Z,-1.09
2022-12-11T10:19:57.328Z,-0.90
2022-12-11T10:22:31.949Z,-1.01
2022-12-11T10:25:11.120Z,-1.00
2022-12-11T10:27:41.310Z,-0.66
2022-12-11T10:30:23.251Z,-0.74
2022-12-11T10:33:13.593Z,-0.68
2022-12-11T10:35:48.150Z,-0.62
2022-12-11T10:38:27.515Z,-0.58
2022-12-11T10:41:01.098Z,-0.47
2022-12-11T10:43:41.439Z,-0.71
2022-12-11T10:46:26.088Z,-0.96
2022-12-11T10:48:58.051Z,-1.06
2022-12-11T10:51:37.503Z,-0.93
2022-12-11T10:54:31.001Z,-0.65
2022-12-11T10:57:01.870Z,-0.81
2022-12-11T11:00:00.214Z,-0.67
2022-12-11T11:02:35.974Z,-0.71
2022-12-11T11:05:37.451Z,-0.69
2022-12-11T11:08:16.203Z,-0.78
2022-12-11T11:11:01.718Z,-0.81
2022-12-11T11:13:31.947Z,-0.92
2022-12-11T11:16:06.869Z,-0.90
2022-12-11T11:18:35.043Z,-0.94
2022-12-11T11:21:03.444Z,-0.76
2022-12-11T11:23:31.507Z,-0.58
2022-12-11T11:26:07.753Z,-0.68
2022-12-11T11:28:42.600Z,-0.77
2022-12-11T11:31:14.552Z,-0.73
2022-12-11T11:34:10.380Z,-0.67
2022-12-11T11:36:38.640Z,-0.60
2022-12-11T11:39:27.517Z,-0.58
2022-12-11T11:42:20.886Z,-0.54
2022-12-11T11:45:30.888Z,-0.68
2022-12-11T11:48:11.444Z,-0.70
2022-12-11T11:50:45.556Z,-0.59
2022-12-11T11:53:27.225Z,-0.58
2022-12-11T11:56:17.257Z,-0.75
2022-12-11T11:59:03.064Z,-0.72
2022-12-11T12:01:33.570Z,-0.69
2022-12-11T12:04:04.250Z,-0.71
2022-12-11T12:07:14.237Z,-0.60
2022-12-11T12:09:57.514Z,-0.53
2022-12-11T12:13:48.985Z,-0.59
2022-12-11T12:17:03.933Z,-0.52
2022-12-11T12:19:53.613Z,-0.26
2022-12-11T12:22:55.995Z,-0.37
2022-12-11T12:26:08.532Z,-0.48
2022-12-11T12:29:14.856Z,-0.41
2022-12-11T12:32:09.657Z,-0.52
2022-12-11T12:34:48.556Z,-0.70
2022-12-11T12:37:25.517Z,-0.58
2022-12-11T12:40:15.157Z,-0.61
2022-12-11T12:43:34.602Z,-0.65
2022-12-11T12:46:23.668Z,-0.57
2022-12-11T12:48:54.514Z,-0.59
2022-12-11T12:51:23.230Z,-0.47
2022-12-11T12:54:00.938Z,-0.51
2022-12-11T12:56:34.809Z,-0.44
2022-12-11T12:59:03.070Z,-0.58
2022-12-11T13:01:33.300Z,-0.65
2022-12-11T13:04:10.645Z,-0.64
2022-12-11T13:06:50.391Z,-0.57
2022-12-11T13:09:23.860Z,-0.41
2022-12-11T13:11:57.984Z,-0.45
2022-12-11T13:14:33.800Z,-0.46
2022-12-11T13:17:21.224Z,-0.37
2022-12-11T13:19:53.287Z,-0.54
2022-12-11T13:22:24.692Z,-0.47
2022-12-11T13:24:52.599Z,-0.35
2022-12-11T13:27:46.510Z,-0.46
2022-12-11T13:30:14.340Z,-0.51
2022-12-11T13:33:05.413Z,-0.47
2022-12-11T13:35:35.413Z,-0.43
2022-12-11T13:38:15.193Z,-0.32
2022-12-11T13:40:45.341Z,-0.38
2022-12-11T13:43:22.626Z,-0.48
2022-12-11T13:45:55.882Z,-0.23
2022-12-11T13:48:36.903Z,-0.27
2022-12-11T13:51:06.782Z,-0.24
2022-12-11T13:53:34.851Z,-0.26
2022-12-11T13:56:16.749Z,-0.26
2022-12-11T13:58:45.535Z,-0.24
2022-12-11T14:01:27.797Z,-0.23
2022-12-11T14:04:23.843Z,-0.07
2022-12-11T14:06:52.026Z,-0.08
2022-12-11T14:09:26.302Z,-0.06
2022-12-11T14:11:57.340Z,-0.09
2022-12-11T14:14:43.432Z,-0.06
2022-12-11T14:17:18.157Z,-0.05
2022-12-11T14:19:48.715Z,0.05
2022-12-11T14:22:24.472Z,0.13
2022-12-11T14:24:56.601Z,0.17
2022-12-11T14:27:27.037Z,0.14
2022-12-11T14:29:55.821Z,0.10
2022-12-11T14:32:47.453Z,0.00
2022-12-11T14:35:43.751Z,0.03
2022-12-11T14:38:33.747Z,-0.06
2022-12-11T14:41:23.748Z,-0.10
2022-12-11T14:43:57.492Z,-0.11
2022-12-11T14:46:47.404Z,-0.07
2022-12-11T14:49:49.408Z,-0.10
2022-12-11T14:52:32.677Z,-0.03
2022-12-11T14:55:25.043Z,0.03
2022-12-11T14:58:02.877Z,0.10
2022-12-11T15:00:37.478Z,0.11
2022-12-11T15:03:17.859Z,0.02
2022-12-11T15:05:54.892Z,0.07
2022-12-11T15:08:30.235Z,0.01
2022-12-11T15:11:12.097Z,-0.04
2022-12-11T15:14:02.790Z,0.00
2022-12-11T15:16:39.566Z,-0.02
2022-12-11T15:19:18.958Z,0.00
2022-12-11T15:21:47.555Z,-0.01
2022-12-11T15:24:27.933Z,-0.07
2022-12-11T15:27:01.164Z,-0.12
2022-12-11T15:29:38.853Z,-0.11
2022-12-11T15:32:09.922Z,-0.17
2022-12-11T15:34:46.918Z,-0.15
2022-12-11T15:37:30.715Z,-0.20
2022-12-11T15:40:02.864Z,-0.24
2022-12-11T15:42:45.224Z,-0.25
2022-12-11T15:45:20.258Z,-0.25
2022-12-11T15:47:50.174Z,-0.20
2022-12-11T15:50:24.833Z,-0.25
2022-12-11T15:52:55.433Z,-0.29
2022-12-11T15:55:27.140Z,-0.29
2022-12-11T15:58:00.262Z,-0.27
2022-12-11T16:00:28.499Z,-0.28
2022-12-11T16:02:57.609Z,-0.32
2022-12-11T16:05:26.798Z,-0.37
2022-12-11T16:07:59.170Z,-0.46
2022-12-11T16:10:27.343Z,-0.40
2022-12-11T16:12:59.433Z,-0.40
2022-12-11T16:15:29.795Z,-0.42
2022-12-11T16:18:11.374Z,-0.41
2022-12-11T16:20:40.983Z,-0.50
2022-12-11T16:23:10.898Z,-0.49
2022-12-11T16:25:42.032Z,-0.48
2022-12-11T16:28:12.956Z,-0.48
2022-12-11T16:30:43.318Z,-0.48
2022-12-11T16:33:13.370Z,-0.46
2022-12-11T16:35:43.069Z,-0.52
2022-12-11T16:38:11.619Z,-0.49
2022-12-11T16:40:41.326Z,-0.48
2022-12-11T16:43:10.906Z,-0.53
2022-12-11T16:45:38.829Z,-0.49
2022-12-11T16:48:06.828Z,-0.50
2022-12-11T16:50:36.213Z,-0.52
2022-12-11T16:53:04.197Z,-0.50
2022-12-11T16:55:32.082Z,-0.48
2022-12-11T16:58:00.107Z,-0.49
2022-12-11T17:00:28.067Z,-0.52
2022-12-11T17:02:58.903Z,-0.56
2022-12-11T17:05:29.184Z,-0.51
2022-12-11T17:07:58.363Z,-0.53
2022-12-11T17:10:26.509Z,-0.55
2022-12-11T17:12:54.910Z,-0.55
2022-12-11T17:15:23.008Z,-0.50
2022-12-11T17:17:50.940Z,-0.45
2022-12-11T17:20:20.069Z,-0.55
2022-12-11T17:22:48.111Z,-0.50
2022-12-11T17:25:22.210Z,-0.43
2022-12-11T17:27:50.464Z,-0.46
2022-12-11T17:30:18.408Z,-0.45
2022-12-11T17:32:49.518Z,-0.41
2022-12-11T17:35:17.637Z,-0.37
2022-12-11T17:37:45.984Z,-0.39
2022-12-11T17:40:14.086Z,-0.44
2022-12-11T17:42:45.078Z,-0.41
2022-12-11T17:45:13.411Z,-0.45
2022-12-11T17:47:42.765Z,-0.46
2022-12-11T17:50:20.625Z,-0.41
2022-12-11T17:52:49.205Z,-0.44
2022-12-11T17:55:17.368Z,-0.47
2022-12-11T17:57:45.870Z,-0.75
2022-12-11T18:00:15.542Z,-0.71
2022-12-11T18:02:43.511Z,-0.68
2022-12-11T18:05:12.184Z,-0.73
2022-12-11T18:07:40.839Z,-0.76
2022-12-11T18:10:09.213Z,-0.63
2022-12-11T18:12:37.556Z,-0.65
2022-12-11T18:15:06.274Z,-0.64
2022-12-11T18:17:35.247Z,-0.60
2022-12-11T18:20:04.923Z,-0.54
2022-12-11T18:22:32.976Z,-0.50
2022-12-11T18:25:03.941Z,-0.47
2022-12-11T18:28:44.774Z,-0.56
2022-12-11T18:31:30.210Z,-0.51
2022-12-11T18:33:58.189Z,-0.49
2022-12-11T18:36:26.646Z,-0.43
2022-12-11T18:38:54.752Z,-0.51
2022-12-11T18:41:22.690Z,-0.51
2022-12-11T18:43:50.551Z,-0.50
2022-12-11T18:46:21.434Z,-0.41
2022-12-11T18:48:50.758Z,-0.41
2022-12-11T18:51:24.700Z,-0.41
2022-12-11T18:53:53.523Z,-0.47
2022-12-11T18:56:23.617Z,-0.49
2022-12-11T18:58:52.336Z,-0.47
2022-12-11T19:01:30.788Z,-0.45
2022-12-11T19:04:36.114Z,-0.45
2022-12-11T19:07:04.189Z,-0.44
2022-12-11T19:09:37.772Z,-0.44
2022-12-11T19:12:06.599Z,-0.44
2022-12-11T19:14:34.591Z,-0.39
2022-12-11T19:17:03.296Z,-0.38
2022-12-11T19:19:31.453Z,-0.36
2022-12-11T19:21:59.396Z,-0.30
2022-12-11T19:24:28.234Z,-0.23
2022-12-11T19:35:29.117Z,-0.25
2022-12-11T19:37:59.419Z,-0.20
2022-12-11T19:41:02.780Z,-0.20
2022-12-11T19:44:19.330Z,-0.24
2022-12-11T19:48:50.149Z,-0.22
2022-12-11T19:51:28.816Z,-0.02
2022-12-11T19:54:07.618Z,-0.23
2022-12-11T19:57:15.975Z,-0.32
2022-12-11T19:59:59.329Z,-0.28
2022-12-11T20:02:29.830Z,-0.37
2022-12-11T20:05:12.451Z,-0.49
2022-12-11T20:09:12.201Z,-0.51
2022-12-11T20:12:47.281Z,-0.61
2022-12-11T20:18:48.100Z,-0.59
2022-12-11T20:22:25.286Z,-0.66
2022-12-11T20:40:17.525Z,-0.52
2022-12-11T20:42:50.238Z,-0.42
2022-12-11T20:45:18.577Z,-0.46
2022-12-11T20:47:48.291Z,-0.59
2022-12-11T20:50:21.659Z,-0.64
2022-12-11T20:52:51.258Z,-0.70
2022-12-11T20:55:31.139Z,-0.79
2022-12-11T20:58:14.230Z,-0.94
2022-12-11T21:00:52.821Z,-0.87
2022-12-11T21:03:42.175Z,-0.85
2022-12-11T21:06:23.069Z,-0.80
2022-12-11T21:08:52.332Z,-0.80
2022-12-11T21:11:24.199Z,-0.91
2022-12-11T21:13:53.871Z,-0.74
2022-12-11T21:16:24.600Z,-0.74
2022-12-11T21:18:52.596Z,-0.82
2022-12-11T21:21:21.192Z,-0.83
2022-12-11T21:23:50.748Z,-0.84
2022-12-11T21:26:21.361Z,-0.87
2022-12-11T21:28:53.178Z,-0.93
2022-12-11T21:31:21.424Z,-0.92
2022-12-11T21:33:49.519Z,-0.85
2022-12-11T21:36:17.930Z,-0.87
2022-12-11T21:38:47.597Z,-0.81
2022-12-11T21:41:25.758Z,-0.78
2022-12-11T21:45:21.222Z,-0.72
2022-12-11T21:46:44.945Z,-0.82
2022-12-11T21:49:15.175Z,-0.77
2022-12-11T21:51:47.155Z,-0.78
2022-12-11T21:54:18.739Z,-0.82
2022-12-11T21:56:47.236Z,-0.84
2022-12-11T21:59:15.289Z,-0.77
2022-12-11T22:01:46.101Z,-0.83
2022-12-11T22:04:15.502Z,-0.88
2022-12-11T22:06:46.747Z,-0.89
2022-12-11T22:09:16.324Z,-0.98
2022-12-11T22:11:46.026Z,-0.99
2022-12-11T22:14:18.224Z,-0.97
2022-12-11T22:16:46.619Z,-1.15
2022-12-11T22:19:14.700Z,-1.10
2022-12-11T22:21:42.901Z,-1.05
2022-12-11T22:24:11.038Z,-1.12
2022-12-11T22:26:39.171Z,-1.10
2022-12-11T22:29:07.320Z,-1.24
2022-12-11T22:31:35.274Z,-1.27
2022-12-11T22:34:03.254Z,-1.37
2022-12-11T22:36:31.220Z,-1.43
2022-12-11T22:39:00.207Z,-1.47
2022-12-11T22:41:32.554Z,-1.47
2022-12-11T22:44:00.672Z,-1.49
2022-12-11T22:46:30.869Z,-1.48
2022-12-11T22:48:59.322Z,-1.52
2022-12-11T22:51:27.636Z,-1.54
2022-12-11T22:53:55.852Z,-1.50
2022-12-11T22:56:24.546Z,-1.54
2022-12-11T22:58:52.496Z,-1.57
2022-12-11T23:01:23.677Z,-1.55
2022-12-11T23:03:52.495Z,-1.54
2022-12-11T23:06:24.830Z,-1.65
2022-12-11T23:08:55.326Z,-1.70
2022-12-11T23:11:32.233Z,-1.76
2022-12-11T23:14:00.735Z,-1.76
2022-12-11T23:16:29.093Z,-1.78
2022-12-11T23:18:58.404Z,-1.71
2022-12-11T23:21:28.591Z,-1.72
2022-12-11T23:23:58.456Z,-1.78
2022-12-11T23:26:28.462Z,-1.75
2022-12-11T23:28:58.780Z,-1.77
2022-12-11T23:31:30.242Z,-1.64
2022-12-11T23:33:59.148Z,-1.67
2022-12-11T23:36:29.065Z,-1.77
2022-12-11T23:38:57.335Z,-1.89
2022-12-11T23:41:25.478Z,-1.83
2022-12-11T23:43:53.585Z,-1.85
2022-12-11T23:46:24.425Z,-1.81
2022-12-11T23:48:54.443Z,-1.72
2022-12-11T23:51:25.423Z,-1.70
2022-12-11T23:53:54.224Z,-1.74
2022-12-11T23:56:28.456Z,-1.75
2022-12-11T23:58:57.570Z,-1.84
